Time;durP1;ratioP1;P1;durP2;ratioP2;P2;SDS_P1;SDS_P2;PMS_P1;PMS_P2;Temp;Humidity;BMP_temperature;BMP_pressure;BME280_temperature;BME280_humidity;BME280_pressure;Samples;Min_cycle;Max_cycle;Signal;HPM_P1;HPM_P2
2022/03/12 00:00:52;;;;;;;21.05;10.77;;;;;;;6.11;39.54;99282.72;5264205;28;20409;-68
2022/03/12 00:03:43;;;;;;;21.83;11.40;;;;;;;5.91;39.36;99264.84;5263943;28;20060;-68
2022/03/12 00:06:34;;;;;;;24.85;11.65;;;;;;;5.98;39.45;99280.09;5264253;28;20059;-67
2022/03/12 00:09:25;;;;;;;21.77;11.90;;;;;;;5.75;40.86;99281.69;5262785;28;20059;-68
2022/03/12 00:12:15;;;;;;;23.30;11.63;;;;;;;5.59;40.50;99292.41;5263731;28;20117;-68
2022/03/12 00:15:11;;;;;;;27.48;12.02;;;;;;;5.38;41.53;99292.09;5264293;28;20153;-68
2022/03/12 00:18:01;;;;;;;17.83;9.30;;;;;;;5.21;42.66;99291.56;5264032;28;20424;-69
2022/03/12 00:20:52;;;;;;;22.52;11.10;;;;;;;5.13;42.95;99294.66;5263986;28;20264;-69
2022/03/12 00:23:48;;;;;;;21.33;11.70;;;;;;;4.97;42.80;99299.25;5262980;28;20168;-68
2022/03/12 00:26:40;;;;;;;21.20;11.00;;;;;;;4.97;42.91;99296.63;5260679;28;20132;-68
2022/03/12 00:29:32;;;;;;;20.05;11.80;;;;;;;4.94;43.69;99295.06;5263538;28;20048;-68
2022/03/12 00:32:22;;;;;;;25.13;12.73;;;;;;;4.79;44.39;99289.00;5264644;28;20056;-68
2022/03/12 00:35:14;;;;;;;26.10;12.32;;;;;;;4.90;43.54;99302.31;5264277;28;20626;-69
2022/03/12 00:38:04;;;;;;;28.77;13.18;;;;;;;4.84;44.35;99294.81;5263658;28;20552;-68
2022/03/12 00:40:55;;;;;;;29.85;10.82;;;;;;;5.12;41.52;99301.72;5263976;28;20043;-68
2022/03/12 00:43:46;;;;;;;17.83;9.95;;;;;;;5.35;40.65;99301.97;5267303;28;20786;-68
2022/03/12 00:46:36;;;;;;;23.60;10.95;;;;;;;5.68;39.84;99296.22;5263278;28;20525;-69
2022/03/12 00:49:26;;;;;;;20.38;10.45;;;;;;;5.81;39.84;99291.78;5258795;28;20055;-68
2022/03/12 00:52:16;;;;;;;22.17;11.45;;;;;;;5.77;39.98;99294.75;5269192;28;20040;-68
2022/03/12 00:55:07;;;;;;;18.88;10.07;;;;;;;5.74;39.93;99308.94;5262092;28;20055;-68
2022/03/12 00:57:57;;;;;;;26.00;10.60;;;;;;;5.88;39.73;99292.19;5267836;28;20603;-68
2022/03/12 01:00:48;;;;;;;22.13;10.73;;;;;;;5.94;39.43;99296.25;5266899;28;20541;-68
2022/03/12 01:03:40;;;;;;;18.60;9.40;;;;;;;5.73;39.28;99293.25;5271214;28;20414;-69
2022/03/12 01:06:30;;;;;;;22.52;11.02;;;;;;;5.49;39.94;99295.78;5267912;28;20052;-68
2022/03/12 01:09:20;;;;;;;21.67;10.15;;;;;;;5.57;39.37;99286.44;5277345;28;20055;-68
2022/03/12 01:12:10;;;;;;;19.65;10.18;;;;;;;5.73;40.13;99302.00;5282532;28;20050;-68
2022/03/12 01:15:01;;;;;;;21.60;10.55;;;;;;;5.82;38.90;99300.50;5266388;28;20074;-68
2022/03/12 01:17:51;;;;;;;19.88;10.23;;;;;;;5.51;39.54;99292.09;5267325;28;20177;-69
2022/03/12 01:20:42;;;;;;;24.83;10.48;;;;;;;5.80;39.07;99291.91;5267877;28;20054;-68
2022/03/12 01:23:32;;;;;;;19.33;9.68;;;;;;;5.78;38.96;99262.22;5266625;28;20055;-68
2022/03/12 01:26:23;;;;;;;16.85;9.70;;;;;;;5.76;39.36;99288.66;5267306;28;20079;-69
2022/03/12 01:29:13;;;;;;;20.13;10.30;;;;;;;5.87;39.32;99288.72;5267398;28;20054;-68
2022/03/12 01:32:03;;;;;;;20.92;10.07;;;;;;;6.05;38.87;99289.25;5260217;28;20077;-68
2022/03/12 01:34:54;;;;;;;20.23;10.30;;;;;;;5.78;39.17;99289.38;5271945;28;20154;-68
2022/03/12 01:37:44;;;;;;;19.55;9.10;;;;;;;5.72;38.51;99281.06;5267118;28;20052;-69
2022/03/12 01:40:35;;;;;;;22.38;9.43;;;;;;;5.90;38.81;99292.94;5267411;28;20135;-69
2022/03/12 01:43:26;;;;;;;21.67;9.90;;;;;;;5.99;38.63;99300.22;5267687;28;20513;-68
2022/03/12 01:46:16;;;;;;;22.77;9.70;;;;;;;5.97;38.53;99302.13;5263135;28;20058;-69
2022/03/12 01:49:26;;;;;;;21.75;9.60;;;;;;;6.05;38.41;99299.78;5269750;28;20121;-66
2022/03/12 01:52:16;;;;;;;21.75;9.85;;;;;;;6.00;38.33;99299.28;5265064;28;20058;-66
2022/03/12 01:55:06;;;;;;;21.58;10.15;;;;;;;5.98;39.15;99302.97;5267028;28;20190;-66
2022/03/12 01:57:59;;;;;;;18.90;10.02;;;;;;;6.04;38.69;99298.09;5267062;28;20050;-66
2022/03/12 02:00:51;;;;;;;19.60;9.70;;;;;;;6.15;38.30;99285.97;5260752;28;20158;-66
2022/03/12 02:03:42;;;;;;;23.92;9.73;;;;;;;6.23;37.80;99292.41;5265706;28;20070;-65
2022/03/12 02:06:32;;;;;;;20.15;9.93;;;;;;;6.09;38.13;99293.38;5266700;28;20083;-69
2022/03/12 02:09:22;;;;;;;18.23;9.82;;;;;;;6.01;38.72;99282.53;5262492;28;20055;-66
2022/03/12 02:12:12;;;;;;;15.95;9.00;;;;;;;5.95;38.42;99288.22;5272047;28;20047;-67
2022/03/12 02:15:03;;;;;;;23.60;10.30;;;;;;;6.15;38.27;99299.97;5265638;28;20056;-69
2022/03/12 02:17:53;;;;;;;16.52;9.07;;;;;;;6.24;38.40;99303.75;5266086;28;20048;-68
2022/03/12 02:20:43;;;;;;;19.83;10.00;;;;;;;6.27;37.59;99298.28;5260932;28;20048;-68
2022/03/12 02:23:48;;;;;;;17.23;9.20;;;;;;;6.08;38.42;99299.56;5267253;28;20509;-68
2022/03/12 02:26:42;;;;;;;15.60;9.10;;;;;;;5.70;38.85;99268.03;5262080;28;20148;-68
2022/03/12 02:29:32;;;;;;;19.90;9.32;;;;;;;5.86;39.55;99307.25;5260150;28;20078;-68
2022/03/12 02:32:23;;;;;;;16.67;9.65;;;;;;;5.68;40.32;99300.63;5268612;28;20063;-67
2022/03/12 02:35:13;;;;;;;21.10;10.07;;;;;;;5.80;39.76;99305.06;5268865;28;20122;-67
2022/03/12 02:38:05;;;;;;;18.15;10.15;;;;;;;5.97;39.25;99304.75;5265905;28;20529;-67
2022/03/12 02:40:56;;;;;;;17.27;9.55;;;;;;;5.74;39.93;99301.06;5265778;28;20090;-66
2022/03/12 02:43:46;;;;;;;18.83;8.95;;;;;;;5.59;40.27;99302.09;5262097;28;20741;-67
2022/03/12 02:46:40;;;;;;;18.42;9.38;;;;;;;5.57;40.63;99301.38;5265820;28;20048;-67
2022/03/12 02:49:32;;;;;;;23.92;9.80;;;;;;;5.56;39.97;99308.44;5264926;28;20059;-67
2022/03/12 02:52:23;;;;;;;23.25;9.55;;;;;;;5.58;40.51;99310.94;5264911;28;20063;-67
2022/03/12 02:55:18;;;;;;;22.05;9.25;;;;;;;5.57;43.00;99318.00;5267275;28;20074;-66
2022/03/12 02:58:11;;;;;;;17.52;9.52;;;;;;;5.53;41.85;99319.16;5265356;28;20071;-67
2022/03/12 03:01:03;;;;;;;18.05;9.25;;;;;;;5.54;40.91;99306.84;5261587;28;20083;-67
2022/03/12 03:03:56;;;;;;;24.85;9.50;;;;;;;6.03;38.67;99319.28;5266499;28;20565;-67
2022/03/12 03:06:46;;;;;;;18.65;8.90;;;;;;;5.85;39.38;99326.63;5264904;28;20056;-66
2022/03/12 03:09:37;;;;;;;20.30;8.88;;;;;;;5.65;39.43;99314.84;5264917;28;20435;-67
2022/03/12 03:12:27;;;;;;;23.40;9.63;;;;;;;5.88;39.50;99318.50;5265658;28;20571;-67
2022/03/12 03:15:18;;;;;;;18.42;9.63;;;;;;;5.89;38.86;99314.94;5266770;28;20071;-67
2022/03/12 03:18:10;;;;;;;19.55;9.43;;;;;;;5.96;39.14;99313.63;5264494;28;20063;-67
2022/03/12 03:21:02;;;;;;;26.95;9.90;;;;;;;6.02;38.97;99323.69;5268267;28;20059;-67
2022/03/12 03:23:55;;;;;;;18.52;10.05;;;;;;;5.92;39.41;99327.03;5260391;28;20050;-67
2022/03/12 03:26:48;;;;;;;25.83;10.27;;;;;;;5.91;39.44;99328.00;5264618;28;20081;-67
2022/03/12 03:29:39;;;;;;;18.13;9.85;;;;;;;5.73;40.03;99337.97;5264537;28;20197;-67
2022/03/12 03:32:29;;;;;;;19.55;9.30;;;;;;;5.87;39.38;99337.91;5267058;28;20548;-66
2022/03/12 03:35:18;;;;;;;18.08;9.90;;;;;;;6.04;38.82;99340.22;5264661;28;20055;-67
2022/03/12 03:38:11;;;;;;;16.08;9.35;;;;;;;5.54;39.56;99333.97;5261947;28;20417;-66
2022/03/12 03:41:01;;;;;;;18.63;9.10;;;;;;;6.02;39.37;99347.38;5264684;28;20108;-66
2022/03/12 03:43:51;;;;;;;22.00;10.30;;;;;;;5.96;39.51;99352.22;5268083;28;20048;-67
2022/03/12 03:46:41;;;;;;;23.95;9.55;;;;;;;5.85;39.10;99340.63;5257193;28;20123;-67
2022/03/12 03:49:31;;;;;;;17.90;10.18;;;;;;;5.67;40.11;99360.31;5264810;28;20058;-67
2022/03/12 03:52:21;;;;;;;19.08;9.48;;;;;;;6.01;39.29;99350.97;5264750;28;20470;-67
2022/03/12 03:55:11;;;;;;;20.85;10.00;;;;;;;6.00;39.38;99353.72;5259196;28;20058;-67
2022/03/12 03:58:03;;;;;;;20.35;9.77;;;;;;;5.92;39.42;99356.81;5264511;28;20177;-67
2022/03/12 04:00:56;;;;;;;19.80;9.75;;;;;;;6.20;38.54;99355.81;5264854;28;20059;-67
2022/03/12 04:03:49;;;;;;;22.33;10.55;;;;;;;5.81;39.75;99354.09;5264110;28;20054;-67
2022/03/12 04:06:40;;;;;;;18.50;9.60;;;;;;;5.83;39.38;99362.75;5259722;28;20082;-67
2022/03/12 04:09:30;;;;;;;18.05;9.73;;;;;;;5.66;39.49;99366.50;5262908;28;20430;-67
2022/03/12 04:12:23;;;;;;;21.48;10.02;;;;;;;5.79;39.48;99366.50;5259328;28;20512;-67
2022/03/12 04:15:15;;;;;;;24.73;9.43;;;;;;;5.76;39.72;99372.84;5264273;28;20146;-67
2022/03/12 04:18:06;;;;;;;19.80;10.35;;;;;;;5.92;39.37;99374.41;5257990;28;20140;-67
2022/03/12 04:20:57;;;;;;;19.77;9.82;;;;;;;6.00;38.51;99367.72;5264626;28;20540;-67
2022/03/12 04:23:49;;;;;;;21.42;9.95;;;;;;;5.60;40.29;99375.66;5264210;28;20144;-67
2022/03/12 04:26:40;;;;;;;25.42;9.70;;;;;;;5.22;39.93;99345.81;5263835;28;20063;-67
2022/03/12 04:29:31;;;;;;;24.52;11.02;;;;;;;5.23;41.09;99374.63;5264324;28;20070;-67
2022/03/12 04:32:21;;;;;;;20.63;10.15;;;;;;;5.20;40.90;99374.84;5270928;28;20059;-67
2022/03/12 04:35:12;;;;;;;21.08;9.80;;;;;;;5.17;40.77;99378.50;5258134;28;20066;-67
2022/03/12 04:38:03;;;;;;;22.88;10.20;;;;;;;5.10;40.96;99369.34;5264381;28;20059;-67
2022/03/12 04:40:55;;;;;;;19.33;9.68;;;;;;;4.88;41.80;99376.91;5264148;28;20705;-67
2022/03/12 04:43:47;;;;;;;17.38;9.50;;;;;;;4.84;42.14;99381.53;5269393;28;20153;-67
2022/03/12 04:46:38;;;;;;;21.52;10.20;;;;;;;4.50;44.21;99372.28;5263882;28;20472;-67
2022/03/12 04:49:28;;;;;;;16.52;9.23;;;;;;;4.55;41.42;99379.91;5263208;28;20048;-67
2022/03/12 04:52:18;;;;;;;24.15;10.23;;;;;;;4.51;42.27;99383.66;5263392;28;20704;-67
2022/03/12 04:55:11;;;;;;;23.48;11.25;;;;;;;4.50;43.39;99398.56;5267389;28;20094;-67
2022/03/12 04:58:01;;;;;;;21.90;10.55;;;;;;;4.26;43.01;99395.66;5263130;28;20159;-67
2022/03/12 05:00:51;;;;;;;20.08;10.80;;;;;;;4.45;42.63;99403.25;5263828;28;20510;-67
2022/03/12 05:03:43;;;;;;;29.17;10.55;;;;;;;4.54;42.46;99397.44;5262440;28;20048;-67
2022/03/12 05:06:33;;;;;;;18.98;9.88;;;;;;;4.14;43.72;99372.78;5258765;28;20135;-67
2022/03/12 05:09:23;;;;;;;17.63;9.48;;;;;;;4.07;44.61;99398.56;5263843;28;20091;-67
2022/03/12 05:12:13;;;;;;;23.08;10.27;;;;;;;3.80;45.48;99389.72;5258211;28;20083;-67
2022/03/12 05:15:04;;;;;;;21.60;10.43;;;;;;;3.69;43.97;99388.59;5263967;28;20577;-67
2022/03/12 05:17:57;;;;;;;19.67;9.82;;;;;;;3.78;45.33;99408.19;5262362;28;20062;-67
2022/03/12 05:20:47;;;;;;;18.15;9.70;;;;;;;3.97;44.51;99411.41;5266583;28;20059;-67
2022/03/12 05:23:37;;;;;;;23.08;10.00;;;;;;;4.02;45.30;99413.75;5263778;28;20113;-67
2022/03/12 05:26:27;;;;;;;19.05;9.95;;;;;;;3.80;44.73;99426.44;5263118;28;20052;-67
2022/03/12 05:29:18;;;;;;;17.98;9.93;;;;;;;3.89;44.61;99439.88;5263762;28;20048;-67
2022/03/12 05:32:11;;;;;;;23.60;10.63;;;;;;;3.98;44.44;99441.13;5264648;28;20517;-67
2022/03/12 05:35:01;;;;;;;17.88;9.50;;;;;;;4.11;45.43;99442.06;5263190;28;20570;-68
2022/03/12 05:37:52;;;;;;;18.05;10.45;;;;;;;4.21;45.21;99447.63;5260215;28;20493;-67
2022/03/12 05:40:42;;;;;;;19.08;10.15;;;;;;;4.09;45.34;99457.06;5267094;28;20052;-67
2022/03/12 05:43:33;;;;;;;22.00;10.88;;;;;;;4.23;45.71;99454.44;5272528;28;20043;-68
2022/03/12 05:46:23;;;;;;;19.60;10.05;;;;;;;4.17;44.83;99451.34;5269814;28;20050;-68
2022/03/12 05:49:13;;;;;;;30.35;10.18;;;;;;;4.52;45.65;99462.34;5261635;28;20109;-68
2022/03/12 05:52:04;;;;;;;23.15;10.18;;;;;;;5.17;43.82;99460.00;5267149;28;20135;-68
2022/03/12 05:54:58;;;;;;;19.77;10.75;;;;;;;4.93;44.72;99466.78;5267062;28;20489;-67
2022/03/12 05:57:49;;;;;;;18.92;10.60;;;;;;;4.54;44.30;99452.59;5267224;28;20181;-67
2022/03/12 06:00:39;;;;;;;22.25;10.82;;;;;;;4.51;44.96;99479.03;5267082;28;20050;-68
2022/03/12 06:03:29;;;;;;;21.30;10.55;;;;;;;4.56;45.50;99468.25;5264219;28;20063;-68
2022/03/12 06:06:20;;;;;;;27.08;10.32;;;;;;;4.41;44.53;99468.25;5266644;28;20059;-68
2022/03/12 06:09:12;;;;;;;21.63;10.27;;;;;;;4.55;43.89;99464.78;5268121;28;20063;-68
2022/03/12 06:12:03;;;;;;;16.60;9.82;;;;;;;4.40;43.87;99448.19;5265344;28;20036;-68
2022/03/12 06:14:56;;;;;;;20.27;9.75;;;;;;;4.44;44.26;99469.84;5266118;28;20105;-68
2022/03/12 06:17:49;;;;;;;21.58;10.60;;;;;;;4.55;44.71;99462.16;5272061;28;20062;-68
2022/03/12 06:20:39;;;;;;;18.55;10.05;;;;;;;4.45;44.52;99469.75;5265548;28;20116;-69
2022/03/12 06:23:30;;;;;;;21.35;9.63;;;;;;;4.53;45.03;99469.25;5266564;28;20047;-68
2022/03/12 06:26:22;;;;;;;28.13;11.13;;;;;;;4.53;46.15;99481.56;5262275;28;20051;-67
2022/03/12 06:29:13;;;;;;;19.00;10.18;;;;;;;4.48;45.56;99480.06;5265861;28;20540;-67
2022/03/12 06:32:05;;;;;;;23.77;10.82;;;;;;;4.61;44.61;99479.31;5261889;28;20052;-68
2022/03/12 06:34:55;;;;;;;18.50;10.25;;;;;;;4.77;44.50;99487.06;5267204;28;20149;-68
2022/03/12 06:37:45;;;;;;;22.77;11.18;;;;;;;4.76;44.42;99490.66;5272549;28;20167;-68
2022/03/12 06:40:37;;;;;;;21.00;10.23;;;;;;;4.91;43.78;99494.97;5266450;28;20048;-68
2022/03/12 06:43:28;;;;;;;20.42;9.95;;;;;;;5.03;44.16;99496.81;5266338;28;20047;-68
2022/03/12 06:46:19;;;;;;;20.65;10.15;;;;;;;5.08;43.76;99497.38;5265946;28;20044;-66
2022/03/12 06:49:09;;;;;;;19.25;10.00;;;;;;;5.27;44.04;99480.44;5264976;28;20044;-69
2022/03/12 06:51:59;;;;;;;24.27;10.05;;;;;;;5.38;43.39;99499.00;5268616;28;20694;-67
2022/03/12 06:54:51;;;;;;;26.15;10.32;;;;;;;5.75;42.18;99497.44;5261999;28;20098;-67
2022/03/12 06:57:41;;;;;;;23.55;10.05;;;;;;;6.10;41.76;99492.50;5262814;28;20565;-69
2022/03/12 07:00:32;;;;;;;20.98;10.23;;;;;;;6.67;40.17;99474.59;5265456;28;20152;-67
2022/03/12 07:03:24;;;;;;;24.63;9.82;;;;;;;6.99;40.53;99490.78;5265427;28;20050;-69
2022/03/12 07:06:14;;;;;;;19.60;10.57;;;;;;;6.64;40.14;99467.75;5264171;28;20486;-68
2022/03/12 07:09:04;;;;;;;22.35;10.73;;;;;;;6.50;40.63;99489.78;5265616;28;20055;-67
2022/03/12 07:11:58;;;;;;;20.15;9.98;;;;;;;6.80;39.63;99488.59;5265519;28;20059;-69
2022/03/12 07:14:48;;;;;;;28.00;9.75;;;;;;;6.84;38.66;99482.16;5266002;28;20078;-67
2022/03/12 07:17:40;;;;;;;18.10;9.48;;;;;;;6.72;38.70;99497.06;5264475;28;20044;-69
2022/03/12 07:20:34;;;;;;;18.48;9.18;;;;;;;6.79;39.06;99494.84;5260655;28;20108;-67
2022/03/12 07:23:24;;;;;;;22.42;9.35;;;;;;;6.89;38.73;99505.53;5265500;28;20047;-67
2022/03/12 07:26:14;;;;;;;18.05;9.52;;;;;;;7.05;38.35;99499.09;5260059;28;20719;-69
2022/03/12 07:29:05;;;;;;;18.70;9.85;;;;;;;7.16;38.62;99487.78;5266878;28;20192;-67
2022/03/12 07:31:56;;;;;;;18.98;10.57;;;;;;;7.38;38.56;99502.88;5264163;28;20579;-66
2022/03/12 07:34:47;;;;;;;19.95;10.68;;;;;;;7.62;38.06;99516.13;5265107;28;20051;-67
2022/03/12 07:37:39;;;;;;;27.67;11.95;;;;;;;7.71;37.03;99496.09;5267015;28;20055;-67
2022/03/12 07:40:30;;;;;;;20.17;10.05;;;;;;;8.34;37.31;99502.78;5265033;28;20133;-68
2022/03/12 07:43:20;;;;;;;21.40;10.05;;;;;;;8.64;35.91;99497.00;5263216;28;20055;-67
2022/03/12 07:46:10;;;;;;;19.35;9.65;;;;;;;9.15;34.12;99503.59;5271779;28;20052;-67
2022/03/12 07:49:01;;;;;;;25.55;10.48;;;;;;;8.77;35.79;99501.31;5267115;28;20050;-68
2022/03/12 07:51:52;;;;;;;18.90;8.95;;;;;;;9.31;34.88;99487.31;5272516;28;20062;-68
2022/03/12 07:54:42;;;;;;;21.92;10.07;;;;;;;9.99;33.18;99493.22;5269873;28;20059;-68
2022/03/12 07:57:33;;;;;;;20.02;10.43;;;;;;;9.94;32.45;99490.13;5264860;28;20043;-67
2022/03/12 08:00:28;;;;;;;18.75;10.25;;;;;;;9.70;34.40;99499.13;5262370;28;20051;-67
2022/03/12 08:03:19;;;;;;;22.73;10.45;;;;;;;10.44;33.54;99490.34;5263262;28;20185;-68
2022/03/12 08:06:09;;;;;;;25.15;10.70;;;;;;;10.39;32.43;99489.88;5270423;28;20640;-69
2022/03/12 08:09:00;;;;;;;20.08;9.88;;;;;;;10.50;32.97;99482.72;5261274;28;20134;-68
2022/03/12 08:11:51;;;;;;;27.50;10.18;;;;;;;10.62;32.39;99491.41;5264235;28;20170;-69
2022/03/12 08:14:44;;;;;;;17.92;9.93;;;;;;;10.90;33.00;99457.22;5272711;28;20483;-69
2022/03/12 08:17:35;;;;;;;24.50;10.52;;;;;;;11.50;31.88;99488.06;5261848;28;20070;-67
2022/03/12 08:20:25;;;;;;;18.48;10.15;;;;;;;12.15;31.96;99488.41;5263743;28;20176;-70
2022/03/12 08:23:19;;;;;;;28.35;10.98;;;;;;;12.48;30.13;99483.56;5264809;28;20570;-68
2022/03/12 08:26:14;;;;;;;22.35;11.23;;;;;;;11.68;30.35;99490.88;5263298;28;20125;-68
2022/03/12 08:29:04;;;;;;;18.73;10.48;;;;;;;11.87;31.16;99491.91;5249947;28;20452;-68
2022/03/12 08:31:54;;;;;;;21.30;10.63;;;;;;;12.44;30.72;99498.13;5259468;28;20059;-68
2022/03/12 08:34:44;;;;;;;20.77;11.23;;;;;;;11.99;31.49;99491.63;5263709;28;20055;-67
2022/03/12 08:37:34;;;;;;;18.75;11.05;;;;;;;12.64;29.70;99498.94;5263701;28;20513;-68
2022/03/12 08:40:28;;;;;;;21.25;12.02;;;;;;;12.66;30.64;99496.97;5249193;28;20063;-67
2022/03/12 08:43:19;;;;;;;17.83;10.53;;;;;;;12.52;30.56;99495.63;5263234;28;20459;-67
2022/03/12 08:46:09;;;;;;;18.98;10.68;;;;;;;13.13;31.07;99504.91;5263490;28;20055;-67
2022/03/12 08:49:00;;;;;;;24.45;11.75;;;;;;;13.19;29.48;99500.81;5264287;28;20052;-67
2022/03/12 08:51:50;;;;;;;24.67;11.07;;;;;;;13.42;30.71;99494.13;5265946;28;20082;-67
2022/03/12 08:54:40;;;;;;;23.63;10.90;;;;;;;12.93;29.70;99491.69;5266011;28;20423;-67
2022/03/12 08:57:30;;;;;;;18.98;11.48;;;;;;;12.70;30.50;99493.88;5262417;28;20185;-66
2022/03/12 09:00:20;;;;;;;24.08;11.32;;;;;;;12.46;30.02;99497.03;5262740;28;20118;-66
2022/03/12 09:03:12;;;;;;;26.17;11.35;;;;;;;12.70;30.78;99488.53;5261763;28;20140;-67
2022/03/12 09:06:03;;;;;;;28.58;12.52;;;;;;;13.63;29.24;99478.69;5262612;28;20433;-70
2022/03/12 09:08:54;;;;;;;20.95;11.77;;;;;;;13.74;29.88;99487.44;5270689;28;20508;-69
2022/03/12 09:11:43;;;;;;;20.67;11.95;;;;;;;14.15;29.06;99482.50;5263305;28;20513;-68
2022/03/12 09:14:36;;;;;;;19.23;10.57;;;;;;;14.64;27.36;99485.53;5266981;28;20054;-67
2022/03/12 09:17:27;;;;;;;25.27;12.63;;;;;;;14.42;28.18;99489.53;5260637;28;20051;-69
2022/03/12 09:20:17;;;;;;;22.15;12.07;;;;;;;15.24;28.16;99488.16;5264133;28;20054;-68
2022/03/12 09:23:08;;;;;;;25.92;12.77;;;;;;;15.77;26.86;99494.16;5263495;28;20050;-68
2022/03/12 09:25:58;;;;;;;22.95;12.82;;;;;;;15.82;27.13;99489.97;5265900;28;20694;-67
2022/03/12 09:28:50;;;;;;;24.15;12.75;;;;;;;15.54;26.49;99475.22;5263670;28;20056;-68
2022/03/12 09:31:40;;;;;;;24.50;13.13;;;;;;;15.37;28.24;99466.31;5256722;28;20044;-67
2022/03/12 09:34:31;;;;;;;20.73;12.77;;;;;;;15.63;27.75;99480.41;5264777;28;20119;-67
2022/03/12 09:37:21;;;;;;;23.45;12.93;;;;;;;15.71;27.29;99484.94;5266550;28;20052;-68
2022/03/12 09:40:15;;;;;;;29.38;12.18;;;;;;;15.34;27.02;99483.50;5265485;28;20059;-69
2022/03/12 09:43:05;;;;;;;44.08;14.20;;;;;;;16.49;25.79;99462.19;5265649;28;20063;-67
2022/03/12 09:45:57;;;;;;;25.02;13.32;;;;;;;16.71;25.54;99472.19;5265820;28;20551;-67
2022/03/12 09:48:47;;;;;;;24.80;13.18;;;;;;;17.10;27.23;99480.28;5265033;28;20059;-67
2022/03/12 09:51:38;;;;;;;23.85;13.50;;;;;;;17.13;25.22;99476.44;5265301;28;20144;-68
2022/03/12 09:54:32;;;;;;;22.55;13.40;;;;;;;16.40;26.11;99474.78;5259670;28;20051;-68
2022/03/12 09:57:22;;;;;;;25.42;13.55;;;;;;;16.55;25.59;99464.19;5265425;28;20051;-68
2022/03/12 10:00:15;;;;;;;23.98;13.68;;;;;;;15.76;26.66;99471.94;5264266;28;20074;-68
2022/03/12 10:03:05;;;;;;;21.45;12.80;;;;;;;16.39;27.12;99465.91;5263099;28;20051;-68
2022/03/12 10:05:55;;;;;;;26.40;13.82;;;;;;;16.72;24.92;99465.84;5264052;28;20047;-68
2022/03/12 10:08:45;;;;;;;33.17;14.75;;;;;;;16.34;28.21;99460.22;5262872;28;20051;-68
2022/03/12 10:11:36;;;;;;;32.17;14.15;;;;;;;16.94;25.83;99455.41;5265087;28;20047;-69
2022/03/12 10:14:26;;;;;;;26.83;14.25;;;;;;;17.07;26.20;99461.03;5262140;28;20051;-68
2022/03/12 10:17:19;;;;;;;27.33;15.10;;;;;;;17.17;25.97;99460.84;5265954;28;20044;-68
2022/03/12 10:20:11;;;;;;;29.60;14.65;;;;;;;17.71;24.88;99461.66;5261637;28;20169;-69
2022/03/12 10:23:03;;;;;;;25.67;13.95;;;;;;;17.02;25.78;99458.91;5252659;28;20055;-69
2022/03/12 10:25:55;;;;;;;24.25;14.45;;;;;;;16.49;26.83;99440.78;5262745;28;20044;-69
2022/03/12 10:28:45;;;;;;;32.45;14.65;;;;;;;17.44;25.88;99454.16;5258537;28;20053;-69
2022/03/12 10:31:38;;;;;;;26.10;14.45;;;;;;;16.85;26.34;99447.41;5248276;28;20422;-69
2022/03/12 10:34:29;;;;;;;31.63;14.65;;;;;;;16.89;28.46;99434.50;5253486;28;20051;-69
2022/03/12 10:37:21;;;;;;;27.00;14.20;;;;;;;16.39;27.52;99431.13;5257097;28;20514;-69
2022/03/12 10:40:19;;;;;;;25.50;13.95;;;;;;;15.96;28.22;99441.19;5263649;28;20145;-68
2022/03/12 10:43:15;;;;;;;25.77;14.80;;;;;;;16.41;29.36;99426.41;5263964;28;20055;-69
2022/03/12 10:46:05;;;;;;;22.17;13.88;;;;;;;16.04;29.15;99426.13;5263647;28;20149;-69
2022/03/12 10:48:58;;;;;;;29.58;14.45;;;;;;;15.72;29.97;99428.63;5263151;28;20189;-68
2022/03/12 10:51:56;;;;;;;29.75;19.58;;;;;;;15.65;29.28;99421.41;5248447;28;20127;-69
2022/03/12 10:54:46;;;;;;;38.28;25.70;;;;;;;16.34;29.32;99427.28;5262349;28;20044;-69
2022/03/12 10:57:36;;;;;;;39.70;27.10;;;;;;;17.37;27.92;99422.69;5252245;28;20053;-69
2022/03/12 11:00:29;;;;;;;34.33;24.42;;;;;;;17.03;28.82;99409.66;5247876;28;20044;-69
2022/03/12 11:03:22;;;;;;;25.47;13.50;;;;;;;15.70;29.78;99421.81;5258652;28;20153;-69
2022/03/12 11:06:13;;;;;;;22.42;14.05;;;;;;;16.01;30.02;99405.06;5262506;28;20286;-69
2022/03/12 11:09:03;;;;;;;21.88;13.98;;;;;;;16.37;28.87;99418.91;5264225;28;20048;-68
2022/03/12 11:11:58;;;;;;;26.73;14.27;;;;;;;16.16;29.59;99414.09;5263719;28;20044;-69
2022/03/12 11:15:14;;;;;;;27.15;13.40;;;;;;;16.73;29.22;99411.28;5262433;28;20047;-69
2022/03/12 11:18:07;;;;;;;22.35;12.95;;;;;;;16.83;28.89;99405.75;5259699;28;20059;-69
2022/03/12 11:20:58;;;;;;;21.40;14.10;;;;;;;15.47;29.96;99406.38;5261891;28;20189;-69
2022/03/12 11:23:48;;;;;;;21.40;13.68;;;;;;;16.52;30.62;99406.47;5269389;28;20413;-69
2022/03/12 11:26:51;;;;;;;25.42;13.35;;;;;;;16.43;29.54;99399.50;5265580;28;20055;-68
2022/03/12 11:29:41;;;;;;;21.90;12.10;;;;;;;16.42;29.51;99395.97;5269191;28;20050;-69
2022/03/12 11:32:35;;;;;;;24.90;12.73;;;;;;;16.64;29.14;99394.38;5266529;28;20097;-69
2022/03/12 11:35:27;;;;;;;21.08;11.98;;;;;;;17.09;28.63;99386.69;5262145;28;20047;-68
2022/03/12 11:38:20;;;;;;;20.75;12.23;;;;;;;17.08;29.41;99376.97;5262243;28;20120;-69
2022/03/12 11:41:23;;;;;;;25.30;12.10;;;;;;;16.65;29.29;99384.50;5261778;28;20064;-68
2022/03/12 11:44:14;;;;;;;20.48;12.13;;;;;;;16.27;30.33;99375.44;5265144;28;20135;-68
2022/03/12 11:47:05;;;;;;;17.08;11.43;;;;;;;16.38;30.59;99370.53;5268753;28;20134;-69
2022/03/12 11:49:57;;;;;;;21.00;12.23;;;;;;;16.93;30.43;99370.72;5248948;28;20059;-69
2022/03/12 11:52:48;;;;;;;18.42;11.68;;;;;;;17.47;30.74;99359.97;5267342;28;20672;-69
2022/03/12 11:55:40;;;;;;;22.38;11.75;;;;;;;17.38;29.50;99357.38;5265950;28;20055;-69
2022/03/12 11:58:32;;;;;;;20.52;12.05;;;;;;;17.55;30.37;99363.44;5263270;28;20044;-68
2022/03/12 12:01:22;;;;;;;23.73;12.93;;;;;;;17.53;29.57;99352.03;5263778;28;20047;-68
2022/03/12 12:04:13;;;;;;;21.48;12.82;;;;;;;16.27;29.66;99357.53;5263663;28;20051;-71
2022/03/12 12:07:03;;;;;;;21.80;12.13;;;;;;;16.59;30.78;99353.94;5264978;28;20067;-68
2022/03/12 12:09:54;;;;;;;22.77;12.55;;;;;;;16.60;30.64;99325.31;5264727;28;20083;-68
2022/03/12 12:12:46;;;;;;;23.17;13.13;;;;;;;16.59;30.89;99353.09;5249933;28;20441;-69
2022/03/12 12:15:38;;;;;;;23.98;12.65;;;;;;;16.73;29.72;99346.19;5264474;28;20054;-68
2022/03/12 12:18:28;;;;;;;33.00;12.32;;;;;;;16.57;31.62;99339.03;5264974;28;20055;-71
2022/03/12 12:21:18;;;;;;;19.83;12.32;;;;;;;17.10;32.43;99337.44;5254227;28;20144;-70
2022/03/12 12:24:24;;;;;;;25.58;12.57;;;;;;;17.30;31.56;99329.78;5263299;28;20055;-67
2022/03/12 12:27:16;;;;;;;20.95;11.25;;;;;;;16.87;30.47;99329.38;5264225;28;20097;-67
2022/03/12 12:30:07;;;;;;;18.65;12.05;;;;;;;16.55;31.83;99316.97;5263591;28;20071;-68
2022/03/12 12:33:01;;;;;;;21.35;12.07;;;;;;;16.20;31.32;99316.44;5272191;28;20044;-68
2022/03/12 12:36:09;;;;;;;18.88;12.00;;;;;;;16.76;31.61;99313.72;5257088;28;20052;-66
2022/03/12 12:39:11;;;;;;;19.15;11.10;;;;;;;16.93;31.63;99306.44;5250840;28;20105;-65
2022/03/12 12:42:04;;;;;;;19.65;12.32;;;;;;;15.17;32.38;99294.81;5264237;28;20044;-67
2022/03/12 12:44:54;;;;;;;20.65;11.30;;;;;;;15.86;31.51;99295.28;5268482;28;20067;-67
2022/03/12 12:47:44;;;;;;;18.05;11.35;;;;;;;15.68;34.18;99304.31;5271891;28;20052;-68
2022/03/12 12:50:35;;;;;;;21.02;11.88;;;;;;;15.87;32.29;99295.13;5267140;28;20052;-67
2022/03/12 12:53:30;;;;;;;22.92;12.75;;;;;;;16.32;31.16;99298.97;5268933;28;20090;-66
2022/03/12 12:56:29;;;;;;;20.45;11.95;;;;;;;16.65;31.09;99290.81;5268059;28;20048;-67
2022/03/12 12:59:38;;;;;;;19.33;12.63;;;;;;;16.40;30.85;99288.25;5266192;28;20059;-66
2022/03/12 13:02:42;;;;;;;21.70;12.70;;;;;;;16.53;30.99;99286.88;5267818;28;20066;-67
2022/03/12 13:05:52;;;;;;;20.30;12.35;;;;;;;16.53;32.25;99281.53;5280084;28;20052;-67
2022/03/12 13:08:46;;;;;;;24.15;13.02;;;;;;;16.47;31.71;99268.84;5267779;28;20048;-66
2022/03/12 13:11:43;;;;;;;22.20;13.50;;;;;;;16.91;31.33;99269.91;5268221;28;20051;-66
2022/03/12 13:14:42;;;;;;;23.95;12.65;;;;;;;16.70;31.46;99255.50;5265856;28;20036;-67
2022/03/12 13:17:34;;;;;;;24.33;13.13;;;;;;;16.31;32.12;99243.81;5265738;28;20054;-68